Eastsound, WA (98245)

3:20 PM PST on December 02, 2016 (GMT -0800)
Orcas Island | | Change Station

Elev 30 ft 48.71 °N, 122.91 °W | Updated 5 minutes ago

Light Rain
Light Rain
46 °F
Feels Like 40 °F
N
14
Wind Variable Wind from SSW
Gusts 18 mph

Today
High -- | Low -- °F
--% Chance of Precip.
Yesterday
High -- | Low -- °F
Precip. -- in
Pressure 30.04 in
Visibility 2.5 miles
Clouds Few 100 ft
Overcast 1400 ft
Windchill 40 °F
Dew Point 45 °F
Humidity 93%
Rainfall 0.21 in
Snow Depth Not available.
7:45 AM 4:17 PM
Waxing Crescent, 11% visible
METAR KORS 022315Z AUTO 20012G16KT 030V040 2 1/2SM -RA FEW001 OVC014 08/07 A3004 RMK AO2 P0001
Pressure 30.04 in
Visibility 2.5 miles
Clouds Few 100 ft
Overcast 1400 ft
Windchill 40 °F
Dew Point 45 °F
Humidity 93%
Rainfall 0.21 in
Snow Depth Not available.
7:45 AM 4:17 PM
Waxing Crescent, 11% visible
METAR KORS 022315Z AUTO 20012G16KT 030V040 2 1/2SM -RA FEW001 OVC014 08/07 A3004 RMK AO2 P0001

10-Day Weather Forecast

Almanac

Astronomy

Dec. 02, 2016 Rise Set
Actual Time
Civil Twilight
Nautical Twilight
Astronomical Twilight
Moon
Length of Visible Light
Length of Day
Tomorrow will be .
, % of the Moon is Illuminated

Today's Extremes

State Highs State Lows

Community

WunderPhotos

Upload Photos

1,955,377 photos uploaded!

WunderBlog® & News

Nearby

Air Quality

  Air Quality AQ Index Pollutant
Not available.

Snow Depth

Station Depth Elevation

Earthquake Activity

City Distance Mag. Time & Date
Minimum magnitude displayed is 2.5.

Coastal Water Temperatures

Place Temperature

Stations

Nearby Weather Stations

Station Location Temp. Windchill Dew Point Humidity Wind Precip. Elev Updated Type
                   

Watches & Warnings

There are currently no watches in effect.